createdAt,value
2024-02-26T00:02:01.739Z,6.54
2024-02-26T00:05:03.540Z,6.55
2024-02-26T00:08:06.021Z,6.50
2024-02-26T00:11:07.884Z,6.46
2024-02-26T00:14:09.617Z,6.47
2024-02-26T00:17:11.208Z,6.47
2024-02-26T00:20:12.853Z,6.46
2024-02-26T00:23:16.586Z,6.44
2024-02-26T00:26:18.555Z,6.42
2024-02-26T00:29:20.233Z,6.41
2024-02-26T00:32:22.077Z,6.39
2024-02-26T00:35:23.673Z,6.36
2024-02-26T00:38:25.213Z,6.38
2024-02-26T00:41:27.150Z,6.40
2024-02-26T00:44:28.799Z,6.39
2024-02-26T00:47:30.480Z,6.40
2024-02-26T00:50:32.965Z,6.42
2024-02-26T00:53:34.747Z,6.43
2024-02-26T00:56:36.797Z,6.43
2024-02-26T00:59:38.469Z,6.44
2024-02-26T01:02:40.222Z,6.42
2024-02-26T01:05:42.075Z,6.39
2024-02-26T01:08:43.985Z,6.32
2024-02-26T01:11:45.679Z,6.25
2024-02-26T01:14:47.350Z,6.20
2024-02-26T01:17:49.048Z,6.17
2024-02-26T01:20:51.529Z,6.16
2024-02-26T01:23:53.293Z,6.16
2024-02-26T01:26:55.310Z,6.16
2024-02-26T01:29:57.098Z,6.18
2024-02-26T01:32:58.919Z,6.21
2024-02-26T01:36:00.788Z,6.24
2024-02-26T01:39:02.468Z,6.26
2024-02-26T01:42:04.644Z,6.25
2024-02-26T01:45:06.728Z,6.23
2024-02-26T01:48:08.650Z,6.20
2024-02-26T01:51:11.297Z,6.20
2024-02-26T01:54:13.011Z,6.17
2024-02-26T01:57:15.217Z,6.14
2024-02-26T02:00:17.852Z,6.09
2024-02-26T02:03:19.696Z,6.01
2024-02-26T02:06:21.601Z,5.90
2024-02-26T02:09:23.376Z,5.86
2024-02-26T02:12:25.636Z,5.82
2024-02-26T02:15:27.325Z,5.74
2024-02-26T02:18:29.378Z,5.68
2024-02-26T02:21:31.083Z,5.60
2024-02-26T02:24:32.630Z,5.51
2024-02-26T02:27:34.430Z,5.39
2024-02-26T02:30:36.077Z,5.28
2024-02-26T02:33:37.760Z,5.19
2024-02-26T02:36:55.087Z,5.11
2024-02-26T02:39:56.727Z,5.05
2024-02-26T02:42:59.103Z,5.02
2024-02-26T02:46:00.678Z,5.02
2024-02-26T02:49:02.685Z,5.00
2024-02-26T02:52:04.675Z,4.96
2024-02-26T02:55:06.548Z,4.89
2024-02-26T02:58:08.445Z,4.81
2024-02-26T03:01:10.193Z,4.69
2024-02-26T03:04:11.892Z,4.59
2024-02-26T03:07:13.500Z,4.56
2024-02-26T03:10:15.362Z,4.51
2024-02-26T03:13:17.314Z,4.35
2024-02-26T03:16:19.046Z,4.20
2024-02-26T03:19:20.725Z,4.09
2024-02-26T03:22:22.410Z,4.01
2024-02-26T03:25:23.947Z,3.93
2024-02-26T03:28:25.686Z,3.81
2024-02-26T03:31:27.171Z,3.70
2024-02-26T03:34:29.798Z,3.63
2024-02-26T03:37:31.634Z,3.56
2024-02-26T03:40:33.169Z,3.53
2024-02-26T03:43:35.119Z,3.49
2024-02-26T03:46:36.637Z,3.43
2024-02-26T03:49:38.409Z,3.34
2024-02-26T03:52:40.492Z,3.19
2024-02-26T03:55:42.060Z,3.09
2024-02-26T03:58:43.888Z,2.99
2024-02-26T04:01:48.225Z,2.98
2024-02-26T04:04:50.503Z,2.88
2024-02-26T04:07:52.177Z,2.81
2024-02-26T04:10:53.772Z,2.73
2024-02-26T04:13:55.383Z,2.67
2024-02-26T04:16:57.017Z,2.63
2024-02-26T04:19:58.612Z,2.57
2024-02-26T04:23:00.152Z,2.52
2024-02-26T04:26:01.916Z,2.48
2024-02-26T04:29:03.989Z,2.43
2024-02-26T04:32:05.594Z,2.36
2024-02-26T04:35:07.752Z,2.22
2024-02-26T04:38:09.536Z,2.16
2024-02-26T04:41:11.263Z,2.14
2024-02-26T04:44:13.234Z,2.17
2024-02-26T04:47:14.766Z,2.21
2024-02-26T04:50:16.508Z,2.24
2024-02-26T04:53:18.192Z,2.24
2024-02-26T04:56:19.692Z,2.11
2024-02-26T04:59:21.540Z,2.01
2024-02-26T05:02:23.184Z,2.15
2024-02-26T05:05:24.802Z,2.16
2024-02-26T05:08:26.450Z,2.00
2024-02-26T05:11:28.101Z,1.80
2024-02-26T05:14:30.015Z,1.66
2024-02-26T05:17:31.644Z,1.52
2024-02-26T05:20:33.248Z,1.52
2024-02-26T05:23:34.798Z,1.55
2024-02-26T05:26:36.661Z,1.46
2024-02-26T05:29:38.546Z,1.38
2024-02-26T05:32:40.283Z,1.21
2024-02-26T05:35:41.920Z,1.12
2024-02-26T05:38:43.584Z,1.07
2024-02-26T05:41:45.377Z,1.00
2024-02-26T05:44:47.299Z,0.83
2024-02-26T05:47:49.070Z,0.77
2024-02-26T05:50:50.793Z,0.73
2024-02-26T05:53:52.420Z,0.72
2024-02-26T05:56:54.093Z,0.76
2024-02-26T05:59:55.723Z,0.82
2024-02-26T06:02:57.508Z,0.78
2024-02-26T06:05:59.399Z,0.78
2024-02-26T06:09:01.024Z,0.80
2024-02-26T06:12:02.867Z,0.86
2024-02-26T06:15:04.911Z,0.91
2024-02-26T06:18:06.675Z,1.04
2024-02-26T06:21:10.975Z,1.24
2024-02-26T06:24:12.677Z,1.87
2024-02-26T06:27:14.282Z,2.15
2024-02-26T06:30:16.016Z,2.52
2024-02-26T06:33:17.625Z,3.57
2024-02-26T06:36:19.306Z,4.51
2024-02-26T06:39:21.060Z,5.17
2024-02-26T06:42:22.795Z,6.37
2024-02-26T06:45:24.472Z,7.53
2024-02-26T06:48:26.239Z,7.52
2024-02-26T06:51:28.118Z,7.38
2024-02-26T06:54:32.518Z,7.13
2024-02-26T06:57:34.174Z,7.02
2024-02-26T07:00:36.627Z,6.92
2024-02-26T07:03:38.360Z,6.70
2024-02-26T07:06:40.204Z,6.51
2024-02-26T07:09:43.382Z,6.37
2024-02-26T07:12:45.297Z,6.24
2024-02-26T07:15:46.991Z,5.97
2024-02-26T07:18:48.623Z,5.77
2024-02-26T07:21:50.434Z,5.72
2024-02-26T07:24:52.128Z,5.73
2024-02-26T07:27:53.771Z,5.95
2024-02-26T07:30:55.791Z,6.25
2024-02-26T07:33:57.687Z,6.45
2024-02-26T07:36:59.351Z,6.86
2024-02-26T07:40:01.230Z,7.44
2024-02-26T07:43:02.926Z,8.24
2024-02-26T07:46:04.812Z,8.75
2024-02-26T07:49:06.505Z,9.01
2024-02-26T07:52:08.220Z,9.74
2024-02-26T07:55:09.859Z,11.17
2024-02-26T07:58:11.514Z,12.36
2024-02-26T08:01:16.478Z,13.44
2024-02-26T08:04:18.517Z,14.28
2024-02-26T08:07:20.223Z,14.36
2024-02-26T08:10:21.884Z,14.60
2024-02-26T08:13:23.442Z,14.51
2024-02-26T08:16:25.073Z,14.74
2024-02-26T08:19:27.906Z,14.78
2024-02-26T08:22:29.627Z,14.17
2024-02-26T08:25:31.275Z,14.08
2024-02-26T08:28:32.871Z,14.47
2024-02-26T08:31:34.588Z,15.06
2024-02-26T08:34:36.270Z,15.22
2024-02-26T08:37:45.789Z,14.88
2024-02-26T08:40:47.455Z,14.26
2024-02-26T08:43:49.071Z,14.08
2024-02-26T08:46:50.756Z,14.31
2024-02-26T08:49:52.403Z,14.53
2024-02-26T08:52:54.048Z,14.70
2024-02-26T08:55:55.727Z,14.65
2024-02-26T08:58:57.334Z,14.91
2024-02-26T09:01:59.169Z,15.21
2024-02-26T09:05:00.762Z,15.22
2024-02-26T09:08:02.377Z,15.73
2024-02-26T09:11:04.347Z,16.17
2024-02-26T09:14:05.963Z,16.45
2024-02-26T09:17:07.657Z,16.58
2024-02-26T09:20:09.448Z,16.53
2024-02-26T09:23:11.201Z,16.35
2024-02-26T09:26:12.783Z,16.79
2024-02-26T09:29:14.373Z,17.23
2024-02-26T09:32:16.056Z,16.54
2024-02-26T09:35:17.823Z,15.71
2024-02-26T09:38:19.556Z,15.10
2024-02-26T09:41:21.213Z,14.80
2024-02-26T09:44:23.511Z,14.47
2024-02-26T09:47:27.719Z,14.21
2024-02-26T09:50:29.491Z,14.75
2024-02-26T09:53:32.197Z,16.20
2024-02-26T09:56:33.909Z,17.62
2024-02-26T09:59:43.017Z,18.51
2024-02-26T10:02:47.020Z,18.91
2024-02-26T10:05:50.663Z,18.09
2024-02-26T10:08:52.456Z,17.25
2024-02-26T10:11:54.246Z,17.22
2024-02-26T10:14:55.966Z,17.85
2024-02-26T10:17:57.904Z,17.96
2024-02-26T10:21:03.504Z,18.07
2024-02-26T10:24:05.617Z,18.49
2024-02-26T10:27:07.669Z,18.57
2024-02-26T10:30:23.181Z,18.60
2024-02-26T10:33:26.050Z,18.76
2024-02-26T10:36:38.025Z,18.94
2024-02-26T10:39:48.380Z,19.43
2024-02-26T10:42:50.005Z,19.58
2024-02-26T10:45:51.601Z,19.67
2024-02-26T10:48:54.714Z,20.06
2024-02-26T10:51:57.591Z,20.39
2024-02-26T10:55:02.043Z,20.29
2024-02-26T10:58:04.176Z,20.12
2024-02-26T11:01:06.326Z,20.23
2024-02-26T11:04:10.076Z,20.35
2024-02-26T11:07:12.234Z,20.22
2024-02-26T11:10:13.891Z,20.14
2024-02-26T11:13:16.935Z,20.10
2024-02-26T11:16:19.723Z,19.78
2024-02-26T11:19:21.703Z,18.81
2024-02-26T11:22:25.526Z,18.84
2024-02-26T11:25:28.718Z,19.48
2024-02-26T11:28:30.644Z,19.96
2024-02-26T11:31:34.163Z,20.35
2024-02-26T11:34:37.993Z,19.77
2024-02-26T11:37:42.294Z,19.26
2024-02-26T11:40:45.416Z,18.66
2024-02-26T11:44:01.865Z,17.90
2024-02-26T11:47:14.444Z,17.18
2024-02-26T11:50:41.148Z,16.74
2024-02-26T11:53:49.043Z,16.44
2024-02-26T11:56:51.484Z,16.27
2024-02-26T11:59:53.884Z,16.14
2024-02-26T12:02:56.602Z,16.23
2024-02-26T12:05:58.397Z,16.35
2024-02-26T12:09:00.147Z,16.60
2024-02-26T12:12:06.534Z,16.77
2024-02-26T12:15:10.143Z,16.67
2024-02-26T12:18:19.268Z,16.51
2024-02-26T12:21:21.083Z,16.39
2024-02-26T12:24:23.000Z,16.22
2024-02-26T12:27:24.717Z,16.16
2024-02-26T12:30:27.131Z,16.17
2024-02-26T12:33:29.756Z,16.11
2024-02-26T12:36:31.975Z,16.14
2024-02-26T12:39:33.683Z,16.20
2024-02-26T12:42:36.329Z,16.21
2024-02-26T12:45:41.088Z,16.25
2024-02-26T12:48:45.889Z,16.31
2024-02-26T12:51:48.397Z,16.25
2024-02-26T12:54:50.054Z,16.27
2024-02-26T12:57:52.131Z,16.21
2024-02-26T13:00:54.397Z,16.03
2024-02-26T13:03:56.463Z,16.13
2024-02-26T13:06:58.413Z,16.16
2024-02-26T13:10:00.949Z,16.08
2024-02-26T13:13:03.582Z,15.95
2024-02-26T13:16:06.608Z,15.91
2024-02-26T13:19:11.913Z,15.92
2024-02-26T13:22:13.697Z,15.86
2024-02-26T13:25:21.502Z,15.69
2024-02-26T13:28:23.201Z,15.71
2024-02-26T13:31:24.828Z,15.72
2024-02-26T13:34:30.314Z,15.71
2024-02-26T13:37:31.925Z,15.56
2024-02-26T13:40:34.238Z,15.35
2024-02-26T13:43:35.846Z,15.22
2024-02-26T13:46:37.561Z,15.36
2024-02-26T13:49:39.278Z,15.43
2024-02-26T13:52:41.061Z,15.52
2024-02-26T13:55:42.878Z,15.59
2024-02-26T13:58:44.566Z,15.53
2024-02-26T14:01:46.213Z,15.35
2024-02-26T14:04:47.871Z,15.13
2024-02-26T14:07:52.289Z,14.98
2024-02-26T14:10:55.129Z,14.86
2024-02-26T14:13:56.851Z,14.77
2024-02-26T14:16:58.404Z,14.69
2024-02-26T14:20:00.386Z,14.61
2024-02-26T14:23:02.135Z,14.52
2024-02-26T14:26:03.920Z,14.43
2024-02-26T14:29:05.511Z,14.38
2024-02-26T14:32:07.166Z,14.37
2024-02-26T14:35:12.656Z,14.44
2024-02-26T14:38:16.710Z,14.49
2024-02-26T14:41:18.451Z,14.50
2024-02-26T14:44:20.154Z,14.41
2024-02-26T14:47:21.751Z,14.34
2024-02-26T14:50:23.414Z,14.24
2024-02-26T14:53:25.081Z,14.15
2024-02-26T14:56:26.852Z,14.11
2024-02-26T14:59:28.468Z,14.00
2024-02-26T15:02:30.135Z,13.92
2024-02-26T15:05:31.698Z,13.87
2024-02-26T15:08:33.361Z,13.84
2024-02-26T15:11:39.146Z,13.75
2024-02-26T15:14:40.777Z,13.68
2024-02-26T15:17:42.472Z,13.57
2024-02-26T15:20:44.169Z,13.46
2024-02-26T15:23:54.783Z,13.44
2024-02-26T15:27:03.930Z,13.32
2024-02-26T15:30:06.289Z,13.20
2024-02-26T15:33:08.125Z,13.14
2024-02-26T15:36:10.633Z,13.05
2024-02-26T15:39:12.289Z,12.96
2024-02-26T15:42:14.141Z,12.86
2024-02-26T15:45:16.640Z,12.74
2024-02-26T15:48:18.451Z,12.62
2024-02-26T15:51:23.946Z,12.55
2024-02-26T15:54:25.849Z,12.51
2024-02-26T15:57:27.498Z,12.41
2024-02-26T16:00:29.331Z,12.34
2024-02-26T16:03:31.102Z,12.23
2024-02-26T16:06:50.076Z,12.04
2024-02-26T16:09:53.530Z,11.91
2024-02-26T16:12:56.872Z,11.70
2024-02-26T16:16:11.017Z,11.48
2024-02-26T16:19:17.361Z,11.31
2024-02-26T16:22:20.597Z,11.17
2024-02-26T16:25:22.198Z,11.08
2024-02-26T16:28:23.944Z,10.94
2024-02-26T16:31:25.625Z,10.86
2024-02-26T16:34:27.403Z,10.78
2024-02-26T16:37:29.840Z,10.74
2024-02-26T16:40:31.510Z,10.70
2024-02-26T16:43:33.097Z,10.64
2024-02-26T16:46:34.964Z,10.58
2024-02-26T16:49:37.060Z,10.51
2024-02-26T16:52:38.801Z,10.47
2024-02-26T16:55:40.416Z,10.40
2024-02-26T16:58:42.084Z,10.34
2024-02-26T17:01:47.376Z,10.28
2024-02-26T17:04:49.091Z,10.21
2024-02-26T17:07:50.772Z,9.96
2024-02-26T17:10:52.540Z,9.84
2024-02-26T17:13:54.229Z,9.92
2024-02-26T17:16:55.935Z,9.94
2024-02-26T17:19:57.602Z,9.90
2024-02-26T17:22:59.472Z,9.81
2024-02-26T17:26:01.102Z,9.79
2024-02-26T17:29:03.863Z,9.77
2024-02-26T17:32:09.671Z,9.68
2024-02-26T17:35:12.985Z,9.65
2024-02-26T17:38:14.667Z,9.62
2024-02-26T17:41:16.443Z,9.58
2024-02-26T17:44:18.055Z,9.56
2024-02-26T17:47:19.665Z,9.55
2024-02-26T17:50:21.548Z,9.50
2024-02-26T17:53:23.386Z,9.51
2024-02-26T17:56:24.988Z,9.60
2024-02-26T17:59:26.667Z,9.66
2024-02-26T18:02:28.501Z,9.70
2024-02-26T18:05:30.632Z,9.73
2024-02-26T18:08:34.815Z,9.82
2024-02-26T18:11:36.974Z,9.86
2024-02-26T18:14:38.597Z,9.82
2024-02-26T18:17:40.496Z,9.74
2024-02-26T18:20:42.220Z,9.73
2024-02-26T18:23:44.085Z,9.72
2024-02-26T18:26:45.992Z,9.69
2024-02-26T18:29:47.704Z,9.65
2024-02-26T18:32:52.276Z,9.62
2024-02-26T18:35:54.551Z,9.61
2024-02-26T18:38:56.347Z,9.57
2024-02-26T18:41:58.051Z,9.51
2024-02-26T18:44:59.888Z,9.43
2024-02-26T18:48:01.899Z,9.28
2024-02-26T18:51:03.826Z,9.07
2024-02-26T18:54:06.384Z,8.81
2024-02-26T18:57:08.104Z,8.52
2024-02-26T19:00:09.952Z,8.19
2024-02-26T19:03:11.681Z,7.86
2024-02-26T19:06:13.472Z,7.63
2024-02-26T19:09:15.122Z,7.43
2024-02-26T19:12:16.885Z,7.30
2024-02-26T19:15:18.652Z,7.25
2024-02-26T19:18:20.438Z,7.24
2024-02-26T19:21:22.155Z,7.23
2024-02-26T19:24:23.944Z,7.19
2024-02-26T19:27:25.658Z,7.13
2024-02-26T19:30:27.405Z,7.08
2024-02-26T19:33:29.234Z,7.04
2024-02-26T19:36:31.102Z,6.99
2024-02-26T19:39:32.867Z,6.94
2024-02-26T19:42:34.619Z,6.91
2024-02-26T19:45:36.293Z,6.84
2024-02-26T19:48:38.179Z,6.80
2024-02-26T19:51:39.894Z,6.76
2024-02-26T19:54:42.216Z,6.71
2024-02-26T19:57:43.867Z,6.67
2024-02-26T20:00:45.673Z,6.69
2024-02-26T20:03:49.740Z,6.73
2024-02-26T20:06:52.134Z,6.74
2024-02-26T20:09:53.842Z,6.69
2024-02-26T20:12:55.603Z,6.65
2024-02-26T20:15:57.229Z,6.65
2024-02-26T20:18:58.983Z,6.61
2024-02-26T20:22:00.632Z,6.58
2024-02-26T20:25:02.327Z,6.57
2024-02-26T20:28:04.652Z,6.53
2024-02-26T20:31:06.658Z,6.50
2024-02-26T20:34:08.399Z,6.50
2024-02-26T20:37:10.183Z,6.52
2024-02-26T20:40:11.967Z,6.54
2024-02-26T20:43:13.631Z,6.54
2024-02-26T20:46:15.328Z,6.53
2024-02-26T20:49:17.144Z,6.53
2024-02-26T20:52:19.004Z,6.50
2024-02-26T20:55:20.643Z,6.51
2024-02-26T20:58:22.249Z,6.53
2024-02-26T21:01:23.940Z,6.55
2024-02-26T21:04:50.686Z,6.52
2024-02-26T21:07:52.474Z,6.41
2024-02-26T21:10:54.069Z,6.27
2024-02-26T21:13:55.848Z,6.17
2024-02-26T21:16:57.471Z,6.10
2024-02-26T21:20:00.370Z,6.02
2024-02-26T21:23:02.425Z,5.97
2024-02-26T21:26:04.547Z,5.91
2024-02-26T21:29:06.231Z,5.86
2024-02-26T21:32:07.810Z,5.82
2024-02-26T21:35:10.279Z,5.86
2024-02-26T21:38:11.979Z,5.89
2024-02-26T21:41:13.643Z,5.91
2024-02-26T21:44:15.573Z,5.89
2024-02-26T21:47:18.078Z,5.82
2024-02-26T21:50:19.824Z,5.51
2024-02-26T21:53:21.406Z,5.23
2024-02-26T21:56:23.130Z,5.10
2024-02-26T21:59:24.834Z,4.99
2024-02-26T22:02:26.517Z,4.91
2024-02-26T22:05:28.113Z,4.90
2024-02-26T22:08:29.796Z,4.93
2024-02-26T22:11:31.512Z,4.96
2024-02-26T22:14:33.235Z,5.02
2024-02-26T22:17:35.315Z,5.12
2024-02-26T22:20:36.996Z,5.15
2024-02-26T22:23:38.535Z,5.19
2024-02-26T22:26:40.174Z,5.13
2024-02-26T22:29:41.833Z,5.11
2024-02-26T22:32:43.426Z,5.12
2024-02-26T22:35:45.074Z,4.90
2024-02-26T22:38:47.055Z,4.63
2024-02-26T22:41:48.963Z,4.42
2024-02-26T22:44:50.581Z,4.26
2024-02-26T22:47:52.245Z,4.21
2024-02-26T22:50:54.090Z,4.16
2024-02-26T22:53:55.827Z,4.12
2024-02-26T22:56:57.550Z,4.09
2024-02-26T22:59:59.210Z,4.10
2024-02-26T23:03:01.720Z,4.12
2024-02-26T23:06:03.705Z,4.14
2024-02-26T23:09:05.558Z,4.14
2024-02-26T23:12:07.633Z,4.11
2024-02-26T23:15:09.908Z,4.09
2024-02-26T23:18:11.588Z,4.16
2024-02-26T23:21:13.382Z,4.18
2024-02-26T23:24:15.098Z,4.20
2024-02-26T23:27:16.927Z,4.43
2024-02-26T23:30:18.844Z,4.56
2024-02-26T23:33:20.647Z,4.53
2024-02-26T23:36:22.387Z,4.48
2024-02-26T23:39:24.028Z,4.37
2024-02-26T23:42:25.688Z,4.28
2024-02-26T23:45:27.345Z,4.17
2024-02-26T23:48:29.134Z,4.03
2024-02-26T23:51:30.891Z,3.94
2024-02-26T23:54:32.615Z,3.84
2024-02-26T23:57:34.446Z,3.77
